Time;durP1;ratioP1;P1;durP2;ratioP2;P2;SDS_P1;SDS_P2;PMS_P1;PMS_P2;Temp;Humidity;BMP_temperature;BMP_pressure;BME280_temperature;BME280_humidity;BME280_pressure;Samples;Min_cycle;Max_cycle;Signal;HPM_P1;HPM_P2
2022/03/27 00:01:05;;;;;;;9.07;5.63;;;;;;;;;;10269352;28;20213;-92
2022/03/27 00:06:08;;;;;;;14.87;6.10;;;11.70;99.90;;;;;;10290452;28;20210;-92
2022/03/27 00:11:24;;;;;;;7.30;4.83;;;11.10;99.90;;;;;;10283882;28;20260;-91
2022/03/27 00:16:27;;;;;;;8.93;5.33;;;11.80;99.90;;;;;;10267531;28;20201;-91
2022/03/27 00:21:30;;;;;;;6.00;4.30;;;12.20;99.90;;;;;;10283098;28;20240;-92
2022/03/27 00:26:33;;;;;;;5.70;4.83;;;11.90;99.90;;;;;;10266782;28;20214;-92
2022/03/27 00:31:37;;;;;;;5.27;4.60;;;12.40;99.90;;;;;;10299792;28;20639;-90
2022/03/27 00:36:40;;;;;;;7.13;5.30;;;12.90;99.90;;;;;;10277491;28;20229;-89
2022/03/27 00:41:43;;;;;;;5.87;4.27;;;13.10;99.00;;;;;;10275934;28;20644;-89
2022/03/27 00:46:46;;;;;;;7.40;5.10;;;12.80;98.10;;;;;;10274650;28;20233;-89
2022/03/27 00:51:48;;;;;;;6.80;4.70;;;12.70;98.90;;;;;;10292764;28;20325;-90
2022/03/27 00:56:51;;;;;;;7.70;4.70;;;12.40;98.70;;;;;;10274488;28;20273;-90
2022/03/27 01:01:53;;;;;;;6.27;4.30;;;11.30;99.20;;;;;;10292375;28;20234;-89
2022/03/27 01:06:57;;;;;;;5.73;4.17;;;11.00;99.90;;;;;;10272956;28;20245;-88
2022/03/27 01:12:12;;;;;;;11.83;7.37;;;11.80;99.90;;;;;;10274136;28;20320;-89
2022/03/27 01:17:17;;;;;;;7.27;4.63;;;11.50;98.60;;;;;;10291678;28;20260;-88
2022/03/27 01:22:21;;;;;;;7.30;4.90;;;12.10;99.90;;;;;;10291877;28;20258;-89
2022/03/27 01:27:24;;;;;;;5.10;3.97;;;12.30;98.80;;;;;;10257904;28;20288;-89
2022/03/27 01:32:26;;;;;;;7.97;5.23;;;12.50;99.70;;;;;;10292982;28;20265;-88
2022/03/27 01:37:29;;;;;;;6.83;4.33;;;12.00;97.10;;;;;;10291056;28;20262;-89
2022/03/27 01:42:31;;;;;;;7.27;4.67;;;12.00;99.30;;;;;;10272600;28;20719;-88
2022/03/27 01:47:36;;;;;;;6.83;4.80;;;12.30;98.40;;;;;;10271412;28;20618;-89
2022/03/27 01:52:38;;;;;;;8.90;5.30;;;12.10;98.20;;;;;;10256318;28;20664;-88
2022/03/27 01:57:42;;;;;;;9.83;4.97;;;12.40;97.20;;;;;;10271908;28;20233;-88
2022/03/27 02:02:45;;;;;;;9.17;4.90;;;12.20;98.00;;;;;;10271531;28;20237;-87
2022/03/27 02:07:47;;;;;;;8.90;5.53;;;12.40;98.00;;;;;;10271551;28;20609;-87
2022/03/27 02:12:50;;;;;;;5.77;4.60;;;12.60;97.20;;;;;;10271595;28;20584;-88
2022/03/27 02:17:52;;;;;;;6.63;4.47;;;12.70;96.20;;;;;;10289550;28;20237;-88
2022/03/27 02:22:55;;;;;;;7.50;4.77;;;12.60;96.50;;;;;;10271788;28;20293;-86
2022/03/27 02:27:57;;;;;;;11.33;4.47;;;12.50;95.20;;;;;;10288177;28;20287;-87
2022/03/27 02:33:00;;;;;;;5.67;4.43;;;12.20;97.10;;;;;;10271688;28;20265;-88
2022/03/27 02:38:05;;;;;;;7.03;4.70;;;12.50;97.10;;;;;;10288090;28;20230;-87
2022/03/27 02:43:09;;;;;;;7.50;5.07;;;12.80;95.80;;;;;;10288040;28;20315;-88
2022/03/27 02:48:12;;;;;;;6.83;4.33;;;12.80;95.60;;;;;;10270088;28;20205;-87
2022/03/27 02:53:14;;;;;;;7.47;4.23;;;12.50;95.50;;;;;;10287971;28;20269;-87
2022/03/27 02:58:17;;;;;;;8.50;4.20;;;12.20;96.50;;;;;;10287096;28;20242;-87
2022/03/27 03:03:19;;;;;;;7.53;4.67;;;12.30;96.30;;;;;;10287298;28;20241;-87
2022/03/27 03:08:26;;;;;;;7.53;4.50;;;12.50;96.00;;;;;;10270224;28;20271;-87
2022/03/27 03:13:29;;;;;;;5.67;3.77;;;12.60;95.10;;;;;;10287454;28;20257;-87
2022/03/27 03:18:34;;;;;;;6.47;4.20;;;12.60;94.80;;;;;;10269112;28;20629;-87
2022/03/27 03:23:36;;;;;;;5.97;4.20;;;12.60;94.80;;;;;;10287234;28;20615;-87
2022/03/27 03:28:39;;;;;;;9.67;5.03;;;12.60;94.20;;;;;;10253350;28;20244;-87
2022/03/27 03:33:41;;;;;;;6.77;4.53;;;12.40;94.40;;;;;;10269010;28;20265;-87
2022/03/27 03:38:44;;;;;;;7.67;4.53;;;12.50;94.90;;;;;;10286275;28;20630;-87
2022/03/27 03:43:46;;;;;;;7.13;4.00;;;12.40;94.50;;;;;;10269821;28;20256;-87
2022/03/27 03:48:49;;;;;;;6.87;4.57;;;12.60;93.90;;;;;;10269423;28;20585;-88
2022/03/27 03:53:52;;;;;;;6.63;4.63;;;12.80;93.70;;;;;;10285848;28;20268;-87
2022/03/27 03:58:55;;;;;;;5.90;4.50;;;12.90;93.30;;;;;;10286247;28;20232;-87
2022/03/27 04:04:17;;;;;;;5.43;3.80;;;13.00;92.70;;;;;;10268923;28;20618;-87
2022/03/27 04:09:20;;;;;;;7.77;5.07;;;13.00;92.70;;;;;;10287066;28;20245;-86
2022/03/27 04:14:23;;;;;;;6.77;4.10;;;12.90;92.00;;;;;;10260316;28;20324;-87
2022/03/27 04:19:26;;;;;;;10.30;4.90;;;12.50;93.30;;;;;;10275661;28;20253;-87
2022/03/27 04:24:28;;;;;;;9.87;5.23;;;12.60;92.80;;;;;;10275907;28;20241;-87
2022/03/27 04:29:31;;;;;;;4.37;3.87;;;12.20;92.90;;;;;;10293572;28;20623;-87
2022/03/27 04:34:34;;;;;;;7.87;5.37;;;12.60;93.20;;;;;;10292856;28;20260;-87
2022/03/27 04:39:36;;;;;;;6.53;4.57;;;12.40;92.30;;;;;;10275226;28;20653;-87
2022/03/27 04:44:39;;;;;;;8.30;4.30;;;12.00;93.70;;;;;;10275237;28;20279;-88
2022/03/27 04:49:41;;;;;;;6.57;4.47;;;12.30;93.20;;;;;;10291387;28;20292;-86
2022/03/27 04:54:44;;;;;;;8.37;4.57;;;12.50;92.90;;;;;;10291882;28;20703;-86
2022/03/27 04:59:46;;;;;;;7.07;4.80;;;12.40;92.90;;;;;;10258747;28;20229;-86
2022/03/27 05:04:49;;;;;;;7.90;4.77;;;12.50;92.90;;;;;;10287413;28;20624;-87
2022/03/27 05:09:51;;;;;;;8.37;4.90;;;12.30;92.60;;;;;;10312769;28;20641;-86
2022/03/27 05:14:54;;;;;;;9.83;4.67;;;12.60;92.80;;;;;;10309287;28;20709;-86
2022/03/27 05:20:03;;;;;;;5.43;3.90;;;12.60;92.50;;;;;;10308989;28;20283;-86
2022/03/27 05:25:06;;;;;;;6.40;4.50;;;12.80;92.20;;;;;;10290168;28;20234;-87
2022/03/27 05:30:09;;;;;;;4.90;3.63;;;12.70;91.40;;;;;;10326064;28;20237;-86
2022/03/27 05:35:12;;;;;;;10.67;6.23;;;13.00;91.50;;;;;;10273906;28;20897;-86
2022/03/27 05:40:18;;;;;;;7.50;4.67;;;13.00;90.40;;;;;;10272699;28;20238;-86
2022/03/27 05:45:21;;;;;;;8.07;5.40;;;12.80;90.60;;;;;;10291042;28;20292;-86
2022/03/27 05:50:25;;;;;;;9.20;5.70;;;12.50;90.70;;;;;;10289832;28;20234;-86
2022/03/27 05:55:27;;;;;;;6.67;4.33;;;12.50;91.00;;;;;;10256881;28;20638;-86
2022/03/27 06:00:30;;;;;;;7.20;4.37;;;12.50;91.50;;;;;;10256659;28;20245;-86
2022/03/27 06:05:33;;;;;;;5.90;4.97;;;12.40;91.20;;;;;;10272132;28;20662;-86
2022/03/27 06:10:38;;;;;;;7.47;4.77;;;12.20;90.90;;;;;;10271822;28;20262;-85
2022/03/27 06:15:40;;;;;;;7.57;4.33;;;12.70;91.40;;;;;;10271414;28;20259;-86
2022/03/27 06:20:43;;;;;;;11.13;7.33;;;13.20;90.40;;;;;;10289670;28;20269;-86
2022/03/27 06:25:45;;;;;;;19.33;9.53;;;13.30;88.00;;;;;;10288506;28;20692;-86
2022/03/27 06:30:48;;;;;;;11.10;5.97;;;12.90;87.50;;;;;;10272013;28;20229;-85
2022/03/27 06:35:51;;;;;;;9.60;5.53;;;12.80;90.30;;;;;;10270668;28;20711;-86
2022/03/27 06:40:53;;;;;;;18.57;10.37;;;12.80;89.00;;;;;;10270585;28;20238;-86
2022/03/27 06:45:56;;;;;;;11.03;6.77;;;12.20;71.60;;;;;;10288528;28;20229;-86
2022/03/27 06:50:58;;;;;;;19.20;10.10;;;12.50;87.70;;;;;;10270710;28;20295;-86
2022/03/27 06:56:01;;;;;;;7.33;4.77;;;12.00;78.90;;;;;;10270220;28;20742;-86
2022/03/27 07:06:25;;;;;;;6.97;4.57;;;12.10;90.30;;;;;;10287590;28;20295;-86
2022/03/27 07:11:27;;;;;;;8.30;5.33;;;12.30;90.40;;;;;;10270447;28;20256;-87
2022/03/27 07:16:31;;;;;;;7.13;4.10;;;11.40;82.00;;;;;;10270008;28;20256;-86
2022/03/27 07:21:34;;;;;;;5.53;3.87;;;11.40;86.50;;;;;;10270204;28;20761;-87
2022/03/27 07:26:36;;;;;;;7.77;4.80;;;11.90;89.10;;;;;;10269899;28;20695;-87
2022/03/27 07:31:39;;;;;;;8.13;4.87;;;11.70;87.10;;;;;;10270461;28;20323;-87
2022/03/27 07:36:42;;;;;;;7.40;4.30;;;12.10;85.70;;;;;;10287779;28;20303;-87
2022/03/27 07:41:45;;;;;;;4.67;3.67;;;12.20;75.00;;;;;;10287943;28;20230;-87
2022/03/27 07:46:52;;;;;;;8.00;4.00;;;12.50;85.10;;;;;;10291902;28;20241;-88
2022/03/27 07:51:55;;;;;;;5.77;3.83;;;12.30;72.50;;;;;;10294721;28;20297;-89
2022/03/27 07:56:58;;;;;;;7.80;3.90;;;12.20;84.20;;;;;;10277125;28;20280;-89
2022/03/27 08:02:02;;;;;;;5.43;3.53;;;12.40;86.70;;;;;;10277074;28;20210;-89
2022/03/27 08:07:04;;;;;;;5.20;2.77;;;12.30;70.10;;;;;;10275830;28;20277;-90
2022/03/27 08:12:08;;;;;;;10.57;4.17;;;11.50;65.60;;;;;;10276466;28;20785;-90
2022/03/27 08:17:11;;;;;;;6.00;3.43;;;11.30;63.10;;;;;;10277051;28;20318;-90
2022/03/27 08:22:14;;;;;;;7.20;3.40;;;11.70;68.30;;;;;;10276699;28;20229;-91
2022/03/27 08:27:16;;;;;;;5.37;3.47;;;11.20;64.20;;;;;;10276491;28;20671;-89
2022/03/27 08:32:22;;;;;;;4.07;2.43;;;12.10;85.80;;;;;;10293526;28;20226;-91
2022/03/27 08:37:24;;;;;;;6.97;3.33;;;11.80;56.60;;;;;;10276379;28;20217;-91
2022/03/27 08:42:27;;;;;;;5.53;2.53;;;12.40;67.20;;;;;;10276008;28;20277;-91
2022/03/27 08:47:31;;;;;;;8.63;3.60;;;12.30;57.30;;;;;;10274844;28;20198;-92
2022/03/27 08:52:53;;;;;;;4.33;2.67;;;12.10;82.90;;;;;;10275693;28;20264;-92
2022/03/27 08:58:03;;;;;;;3.70;2.67;;;12.90;75.00;;;;;;10294026;28;20574;-91
2022/03/27 09:03:07;;;;;;;4.60;2.80;;;13.60;67.00;;;;;;10293482;28;20194;-91
2022/03/27 09:08:11;;;;;;;4.80;3.43;;;12.90;61.90;;;;;;10278229;28;20568;-93
2022/03/27 09:13:19;;;;;;;7.00;3.30;;;13.40;79.80;;;;;;10279113;28;20643;-93
2022/03/27 09:18:21;;;;;;;5.40;2.53;;;13.50;61.30;;;;;;10263159;28;20197;-93
2022/03/27 09:23:26;;;;;;;4.13;3.10;;;14.00;66.40;;;;;;10278757;28;20201;-92
2022/03/27 09:28:44;;;;;;;4.43;2.20;;;13.60;76.50;;;;;;10280122;28;20210;-93
2022/03/27 09:33:54;;;;;;;5.03;3.00;;;13.80;53.00;;;;;;10278346;28;20268;-94
2022/03/27 09:39:13;;;;;;;4.10;2.83;;;13.60;73.80;;;;;;10278178;28;20583;-93
2022/03/27 09:44:18;;;;;;;6.03;2.30;;;14.30;70.50;;;;;;10278702;28;20240;-93
2022/03/27 09:49:37;;;;;;;3.03;1.83;;;14.50;56.80;;;;;;10297229;28;20202;-91
2022/03/27 09:54:56;;;;;;;4.93;1.63;;;14.60;50.60;;;;;;10271627;28;20342;-92
2022/03/27 10:00:19;;;;;;;3.63;2.07;;;14.10;47.50;;;;;;10273954;28;20207;-91
2022/03/27 10:05:22;;;;;;;4.97;1.87;;;14.10;46.90;;;;;;10290790;28;20233;-92
2022/03/27 10:10:26;;;;;;;2.87;1.23;;;13.90;54.10;;;;;;10273263;28;20232;-92
2022/03/27 10:15:30;;;;;;;6.63;1.70;;;14.30;54.30;;;;;;10273757;28;20389;-92
2022/03/27 10:20:37;;;;;;;12.27;2.33;;;12.90;47.20;;;;;;10291223;28;20194;-93
2022/03/27 10:25:50;;;;;;;12.93;3.03;;;12.10;66.00;;;;;;10257885;28;20261;-93
2022/03/27 10:30:53;;;;;;;10.73;3.47;;;13.10;65.90;;;;;;10290722;28;20205;-93
2022/03/27 10:36:12;;;;;;;4.20;2.30;;;14.40;67.10;;;;;;10290896;28;20711;-92
2022/03/27 10:41:23;;;;;;;7.67;2.53;;;14.00;51.10;;;;;;10259513;28;20550;-92
2022/03/27 10:46:28;;;;;;;8.00;2.20;;;14.50;65.10;;;;;;10275638;28;20213;-91
2022/03/27 10:51:34;;;;;;;7.63;2.47;;;13.60;48.70;;;;;;10293825;28;20288;-94
2022/03/27 10:56:48;;;;;;;7.83;1.70;;;14.10;63.90;;;;;;10288640;28;20661;-88
2022/03/27 11:01:56;;;;;;;9.23;2.30;;;13.70;63.60;;;;;;10270492;28;20249;-89
2022/03/27 11:07:17;;;;;;;4.43;1.90;;;14.40;58.70;;;;;;10270141;28;20206;-88
2022/03/27 11:12:22;;;;;;;7.83;2.97;;;14.80;54.00;;;;;;10272108;28;20624;-88
2022/03/27 11:17:31;;;;;;;4.90;2.23;;;14.80;63.70;;;;;;10285313;28;20780;-87
2022/03/27 11:22:47;;;;;;;3.37;2.20;;;15.50;58.60;;;;;;10327096;28;20681;-89
2022/03/27 11:28:12;;;;;;;6.90;1.90;;;15.80;54.80;;;;;;10305598;28;20248;-89
2022/03/27 11:33:23;;;;;;;5.10;1.73;;;15.90;61.20;;;;;;10269198;28;20238;-89
2022/03/27 11:38:27;;;;;;;5.47;2.00;;;15.70;62.70;;;;;;10286628;28;20286;-88
2022/03/27 11:43:30;;;;;;;6.50;2.63;;;14.80;59.30;;;;;;10285550;28;20241;-89
2022/03/27 11:48:32;;;;;;;7.50;2.03;;;15.20;48.30;;;;;;10252598;28;20226;-89
2022/03/27 11:53:35;;;;;;;4.23;2.33;;;14.50;50.70;;;;;;10270937;28;20308;-89
2022/03/27 11:58:38;;;;;;;7.30;2.03;;;14.70;61.50;;;;;;10286062;28;20308;-87
2022/03/27 12:03:41;;;;;;;4.07;2.17;;;14.40;49.50;;;;;;10274111;28;20234;-87
2022/03/27 12:08:44;;;;;;;4.93;1.83;;;14.40;49.70;;;;;;10269112;28;20243;-87
2022/03/27 12:13:46;;;;;;;3.30;2.07;;;13.90;49.60;;;;;;10267806;28;20285;-87
2022/03/27 12:18:50;;;;;;;6.77;2.17;;;14.40;50.60;;;;;;10286518;28;20237;-87
2022/03/27 12:24:02;;;;;;;5.03;2.50;;;14.60;47.80;;;;;;10268144;28;20300;-87
2022/03/27 12:34:49;;;;;;;11.37;3.00;;;14.50;48.40;;;;;;10291933;28;20315;-87
2022/03/27 12:39:51;;;;;;;5.07;1.83;;;13.60;49.50;;;;;;10272206;28;20757;-87
2022/03/27 12:44:54;;;;;;;4.20;2.07;;;14.30;49.80;;;;;;10275772;28;20292;-87
2022/03/27 12:50:02;;;;;;;6.63;2.40;;;14.70;48.30;;;;;;10275121;28;20574;-87
2022/03/27 12:55:11;;;;;;;8.77;3.43;;;14.70;47.40;;;;;;10292329;28;20280;-87
2022/03/27 13:00:15;;;;;;;4.67;2.10;;;14.60;47.70;;;;;;10275486;28;20734;-87
2022/03/27 13:05:27;;;;;;;3.90;1.80;;;14.30;48.40;;;;;;10291868;28;20229;-87
2022/03/27 13:10:30;;;;;;;3.83;2.20;;;14.90;47.00;;;;;;10275241;28;20206;-87
2022/03/27 13:15:40;;;;;;;3.23;1.77;;;14.70;46.20;;;;;;10274844;28;20296;-87
2022/03/27 13:20:44;;;;;;;7.07;2.17;;;14.60;45.40;;;;;;10291138;28;20234;-87
2022/03/27 13:25:47;;;;;;;5.40;2.00;;;14.90;45.30;;;;;;10274361;28;20284;-87
2022/03/27 13:30:49;;;;;;;4.50;2.00;;;15.00;45.20;;;;;;10291976;28;20244;-87
2022/03/27 13:35:52;;;;;;;4.83;2.00;;;14.80;44.50;;;;;;10232564;29;20258;-88
2022/03/27 13:46:16;;;;;;;7.13;1.87;;;15.10;45.30;;;;;;10272902;28;20237;-87
2022/03/27 13:51:19;;;;;;;3.53;2.10;;;15.20;45.10;;;;;;10272209;28;20284;-88
2022/03/27 13:56:22;;;;;;;5.77;2.23;;;15.50;44.60;;;;;;10272822;28;20315;-88
2022/03/27 14:01:24;;;;;;;3.90;1.90;;;15.10;47.10;;;;;;10255647;28;20301;-88
2022/03/27 14:06:27;;;;;;;5.83;1.90;;;15.50;45.50;;;;;;10270185;28;20696;-88
2022/03/27 14:11:31;;;;;;;4.63;2.03;;;15.10;45.90;;;;;;10288107;28;20241;-88
2022/03/27 14:16:35;;;;;;;3.30;2.13;;;15.50;46.10;;;;;;10268539;28;20712;-88
2022/03/27 14:21:38;;;;;;;2.73;1.93;;;15.50;45.70;;;;;;10253335;28;20278;-88
2022/03/27 14:26:42;;;;;;;8.77;2.37;;;15.20;45.70;;;;;;10268772;28;20615;-88
2022/03/27 14:31:44;;;;;;;9.70;3.13;;;15.40;45.40;;;;;;10268323;28;20642;-88
2022/03/27 14:36:47;;;;;;;3.00;2.20;;;15.20;46.30;;;;;;10285639;28;20261;-89
2022/03/27 14:41:50;;;;;;;6.57;2.80;;;15.50;46.40;;;;;;10267964;28;20675;-88
2022/03/27 14:46:53;;;;;;;5.00;3.37;;;15.40;45.60;;;;;;10272679;28;20295;-88
2022/03/27 14:51:55;;;;;;;9.57;3.77;;;15.30;46.20;;;;;;10267808;28;20320;-89
2022/03/27 14:56:58;;;;;;;5.30;2.90;;;15.20;47.10;;;;;;10268692;28;20732;-89
2022/03/27 15:02:00;;;;;;;5.83;3.20;;;15.20;47.10;;;;;;10268610;28;20233;-88
2022/03/27 15:07:03;;;;;;;5.10;2.57;;;15.40;46.70;;;;;;10271318;28;20232;-93
2022/03/27 15:12:07;;;;;;;6.77;3.40;;;15.30;47.80;;;;;;10268858;28;20233;-92
2022/03/27 15:17:10;;;;;;;6.50;2.57;;;15.90;47.80;;;;;;10285491;28;20311;-91
2022/03/27 15:22:12;;;;;;;7.10;2.63;;;16.10;48.20;;;;;;10271836;28;20234;-92
2022/03/27 15:27:15;;;;;;;3.20;2.23;;;16.20;48.50;;;;;;10281430;28;20210;-93
2022/03/27 15:32:19;;;;;;;5.77;2.30;;;16.40;48.60;;;;;;10292444;28;20225;-93
2022/03/27 15:37:22;;;;;;;5.17;2.43;;;16.40;48.90;;;;;;10285487;28;20245;-92
2022/03/27 15:42:25;;;;;;;5.20;2.00;;;16.40;49.10;;;;;;10273894;28;20583;-92
2022/03/27 15:47:28;;;;;;;5.20;2.50;;;16.40;49.50;;;;;;10272555;28;20675;-92
2022/03/27 15:52:31;;;;;;;6.10;2.40;;;16.40;49.70;;;;;;10272636;28;20277;-93
2022/03/27 15:57:33;;;;;;;3.60;2.83;;;16.40;50.10;;;;;;10287936;28;20225;-92
2022/03/27 16:02:39;;;;;;;4.13;2.17;;;16.30;50.30;;;;;;10313081;28;20207;-92
2022/03/27 16:07:42;;;;;;;6.30;2.23;;;16.30;50.70;;;;;;10316088;28;20195;-92
2022/03/27 16:12:44;;;;;;;5.40;2.77;;;16.20;51.10;;;;;;10326134;28;20178;-91
2022/03/27 16:17:47;;;;;;;3.90;1.90;;;16.20;50.40;;;;;;10311962;28;20238;-92
2022/03/27 16:22:50;;;;;;;5.23;2.53;;;16.10;51.70;;;;;;10328178;28;20233;-91
2022/03/27 16:27:53;;;;;;;4.57;2.07;;;16.00;52.10;;;;;;10327953;28;20215;-92
2022/03/27 16:32:57;;;;;;;3.50;2.03;;;15.90;52.50;;;;;;10330056;28;20217;-91
2022/03/27 16:38:03;;;;;;;5.03;2.07;;;15.90;52.70;;;;;;10330296;28;20209;-92
2022/03/27 16:43:07;;;;;;;5.73;3.10;;;15.90;53.10;;;;;;10331924;28;20191;-90
2022/03/27 16:48:09;;;;;;;4.77;2.07;;;15.90;53.20;;;;;;10368570;28;20177;-91
2022/03/27 16:53:12;;;;;;;2.80;1.93;;;15.80;53.50;;;;;;10335089;28;20233;-90
2022/03/27 16:58:15;;;;;;;4.03;2.90;;;15.50;54.10;;;;;;10350123;28;20233;-91
2022/03/27 17:03:19;;;;;;;6.07;3.67;;;15.00;55.50;;;;;;10326276;28;20224;-91
2022/03/27 17:08:22;;;;;;;5.97;3.30;;;14.80;54.20;;;;;;10289647;28;20210;-91
2022/03/27 17:13:24;;;;;;;6.77;4.10;;;14.20;56.40;;;;;;10302981;28;20214;-90
2022/03/27 17:18:27;;;;;;;6.53;3.23;;;14.20;57.20;;;;;;10291178;28;20775;-89
2022/03/27 17:23:30;;;;;;;14.43;7.40;;;14.10;58.30;;;;;;10264767;28;20713;-90
2022/03/27 17:28:34;;;;;;;9.00;4.40;;;14.20;57.70;;;;;;10278073;28;20213;-90
2022/03/27 17:33:36;;;;;;;20.20;10.53;;;13.50;59.00;;;;;;10261846;28;20616;-90
2022/03/27 17:38:39;;;;;;;16.13;8.20;;;12.70;59.50;;;;;;10276547;28;20256;-90
2022/03/27 17:43:42;;;;;;;7.03;3.83;;;12.20;62.00;;;;;;10275256;28;20241;-90
2022/03/27 17:48:44;;;;;;;11.90;6.10;;;12.60;62.70;;;;;;10291117;28;20232;-90
2022/03/27 17:53:47;;;;;;;9.17;4.70;;;12.70;62.30;;;;;;10273719;28;20648;-90
2022/03/27 17:58:49;;;;;;;8.77;4.87;;;12.80;62.50;;;;;;10269355;28;20900;-90
2022/03/27 18:03:53;;;;;;;53.93;22.40;;;12.70;62.80;;;;;;10270203;28;20206;-90
2022/03/27 18:08:56;;;;;;;14.57;7.40;;;12.50;63.00;;;;;;10270839;28;20268;-90
2022/03/27 18:13:59;;;;;;;6.87;4.43;;;12.50;64.20;;;;;;10269311;28;20241;-89
2022/03/27 18:19:01;;;;;;;15.90;8.67;;;12.40;64.30;;;;;;10283543;28;20293;-90
2022/03/27 18:24:24;;;;;;;9.07;4.40;;;12.50;64.30;;;;;;10275542;28;20229;-91
2022/03/27 18:29:26;;;;;;;30.67;12.83;;;12.60;64.70;;;;;;10282366;28;20667;-90
2022/03/27 18:34:30;;;;;;;15.57;8.83;;;12.60;64.30;;;;;;10288181;28;20659;-90
2022/03/27 18:39:33;;;;;;;45.47;22.60;;;12.60;64.60;;;;;;10268089;28;20640;-89
2022/03/27 18:44:37;;;;;;;7.10;5.03;;;12.50;65.10;;;;;;10266700;28;20789;-89
2022/03/27 18:49:41;;;;;;;8.77;5.43;;;13.60;63.20;;;;;;10265881;28;20482;-89
2022/03/27 18:54:44;;;;;;;9.23;5.97;;;14.20;61.60;;;;;;10284199;28;20321;-90
2022/03/27 18:59:49;;;;;;;51.63;28.73;;;14.40;61.00;;;;;;10269834;28;20253;-90
2022/03/27 19:04:52;;;;;;;88.00;48.23;;;14.20;59.70;;;;;;10282828;28;20205;-91
2022/03/27 19:09:54;;;;;;;92.37;46.80;;;9.90;62.50;;;;;;10275971;28;20284;-90
2022/03/27 19:14:57;;;;;;;89.60;43.70;;;;;;;;;;10253650;28;20243;-91
2022/03/27 19:20:05;;;;;;;64.20;34.63;;;7.50;72.10;;;;;;10284497;28;20262;-90
2022/03/27 19:25:07;;;;;;;59.17;30.43;;;7.10;74.10;;;;;;10268494;28;20534;-91
2022/03/27 19:30:12;;;;;;;55.70;25.70;;;6.90;74.60;;;;;;10271716;28;20260;-90
2022/03/27 19:35:14;;;;;;;53.17;28.37;;;6.80;76.30;;;;;;10268740;28;20266;-91
2022/03/27 19:40:17;;;;;;;79.50;38.50;;;6.70;75.60;;;;;;10272522;28;20244;-92
2022/03/27 19:45:22;;;;;;;79.53;41.47;;;7.00;74.90;;;;;;10277524;28;20217;-91
2022/03/27 19:50:28;;;;;;;91.60;41.77;;;6.80;76.30;;;;;;10260103;28;20275;-91
2022/03/27 19:55:30;;;;;;;73.80;34.43;;;6.30;77.60;;;;;;10313558;28;20709;-91
2022/03/27 20:00:33;;;;;;;70.47;35.93;;;6.00;79.90;;;;;;10304748;28;20229;-91
2022/03/27 20:05:39;;;;;;;46.53;23.97;;;5.20;83.70;;;;;;10262557;28;20272;-89
2022/03/27 20:10:42;;;;;;;47.73;26.20;;;5.80;99.90;;;;;;10294179;28;20599;-82
2022/03/27 20:15:44;;;;;;;52.43;29.53;;;10.00;94.90;;;;;;10272601;28;20709;-82
2022/03/27 20:20:47;;;;;;;57.40;28.10;;;10.30;81.70;;;;;;10273412;28;20246;-82
2022/03/27 20:25:49;;;;;;;51.03;29.43;;;10.30;80.00;;;;;;10259662;28;20702;-82
2022/03/27 20:30:51;;;;;;;51.40;28.13;;;10.50;79.00;;;;;;10275379;28;20241;-82
2022/03/27 20:35:54;;;;;;;65.43;31.17;;;10.30;78.80;;;;;;10291256;28;20706;-82
2022/03/27 20:40:57;;;;;;;54.50;29.07;;;10.30;76.70;;;;;;10291721;28;20241;-82
2022/03/27 20:46:00;;;;;;;55.50;29.87;;;10.80;77.90;;;;;;10292107;28;20268;-82
2022/03/27 20:51:03;;;;;;;46.17;26.73;;;11.30;76.20;;;;;;10291159;28;20292;-82
2022/03/27 20:56:05;;;;;;;69.60;33.47;;;11.40;75.60;;;;;;10290703;28;20241;-82
2022/03/27 21:01:08;;;;;;;45.63;26.77;;;11.40;72.60;;;;;;10274514;28;20264;-82
2022/03/27 21:06:11;;;;;;;63.97;30.77;;;11.70;74.60;;;;;;10291633;28;20237;-82
2022/03/27 21:11:13;;;;;;;47.23;25.87;;;11.50;73.20;;;;;;10291289;28;20296;-82
2022/03/27 21:16:17;;;;;;;56.17;28.53;;;11.10;74.70;;;;;;10277274;28;20248;-82
2022/03/27 21:21:19;;;;;;;49.53;24.93;;;11.30;73.70;;;;;;10293642;28;20264;-82
2022/03/27 21:26:23;;;;;;;44.70;24.23;;;11.20;75.30;;;;;;10273803;28;20737;-82
2022/03/27 21:31:25;;;;;;;40.30;23.93;;;11.50;75.30;;;;;;10290770;28;20614;-82
2022/03/27 21:36:27;;;;;;;40.17;24.67;;;11.80;74.60;;;;;;10273242;28;20276;-82
2022/03/27 21:41:32;;;;;;;37.90;22.33;;;12.10;73.60;;;;;;10290441;28;20214;-82
2022/03/27 21:46:35;;;;;;;42.00;22.53;;;12.30;72.70;;;;;;10273135;28;20233;-82
2022/03/27 21:51:37;;;;;;;37.07;23.50;;;12.40;72.40;;;;;;10273296;28;20262;-82
2022/03/27 21:56:40;;;;;;;41.63;23.27;;;12.30;72.40;;;;;;10290381;28;20305;-81
2022/03/27 22:01:43;;;;;;;41.53;24.10;;;11.70;73.50;;;;;;10287007;28;20349;-82
2022/03/27 22:06:49;;;;;;;42.20;24.67;;;10.80;73.20;;;;;;10286510;28;20260;-83
2022/03/27 22:11:52;;;;;;;40.13;23.20;;;10.30;77.20;;;;;;10289519;28;20252;-83
2022/03/27 22:16:54;;;;;;;51.10;26.37;;;10.60;77.70;;;;;;10271839;28;20777;-83
2022/03/27 22:21:57;;;;;;;48.70;26.43;;;9.50;75.20;;;;;;10270596;28;20638;-83
2022/03/27 22:27:00;;;;;;;47.90;23.50;;;8.70;82.40;;;;;;10272183;28;20234;-83
2022/03/27 22:32:02;;;;;;;42.27;23.87;;;9.40;82.70;;;;;;10272090;28;20225;-83
2022/03/27 22:37:05;;;;;;;34.70;20.57;;;10.10;82.20;;;;;;10289978;28;20245;-83
2022/03/27 22:42:08;;;;;;;41.13;23.90;;;10.90;79.80;;;;;;10288710;28;20229;-83
2022/03/27 22:47:10;;;;;;;40.90;23.33;;;11.60;75.30;;;;;;10262769;28;20240;-83
2022/03/27 22:52:13;;;;;;;33.33;19.63;;;11.60;75.90;;;;;;10271287;28;20261;-83
2022/03/27 22:57:16;;;;;;;35.13;20.90;;;11.80;76.30;;;;;;10288525;28;20306;-83
2022/03/27 23:02:19;;;;;;;39.37;20.80;;;13.20;71.90;;;;;;10288579;28;20265;-83
2022/03/27 23:07:23;;;;;;;33.03;20.03;;;13.90;69.40;;;;;;10271250;28;20233;-83
2022/03/27 23:12:26;;;;;;;33.13;19.20;;;14.30;68.00;;;;;;10287144;28;20234;-83
2022/03/27 23:17:28;;;;;;;34.80;20.03;;;14.60;66.80;;;;;;10268889;28;20663;-83
2022/03/27 23:22:31;;;;;;;32.83;18.87;;;14.70;66.20;;;;;;10270475;28;20237;-83
2022/03/27 23:27:33;;;;;;;33.50;19.17;;;14.50;66.30;;;;;;10269485;28;20683;-83
2022/03/27 23:32:36;;;;;;;30.57;20.70;;;14.60;66.00;;;;;;10287656;28;20281;-83
2022/03/27 23:37:39;;;;;;;27.53;17.67;;;14.80;65.50;;;;;;10286314;28;20647;-83
2022/03/27 23:42:42;;;;;;;33.70;19.40;;;14.70;65.50;;;;;;10286554;28;20233;-83
2022/03/27 23:47:44;;;;;;;31.03;17.90;;;14.50;65.50;;;;;;10286289;28;20225;-83
2022/03/27 23:52:47;;;;;;;27.93;17.43;;;14.30;66.40;;;;;;10286657;28;20789;-83
2022/03/27 23:57:50;;;;;;;28.87;17.13;;;14.60;65.70;;;;;;10285964;28;20257;-83
